Time;durP1;ratioP1;P1;durP2;ratioP2;P2;SDS_P1;SDS_P2;PMS_P1;PMS_P2;Temp;Humidity;BMP_temperature;BMP_pressure;BME280_temperature;BME280_humidity;BME280_pressure;Samples;Min_cycle;Max_cycle;Signal;HPM_P1;HPM_P2
2022/12/16 00:01:37;;;;;;;42.92;27.17;;;0.20;99.90;;;;;;5018342;28;20076;-81
2022/12/16 00:04:03;;;;;;;42.97;26.38;;;0.10;99.90;;;;;;5013681;28;20041;-81
2022/12/16 00:06:32;;;;;;;39.95;24.95;;;0.10;99.90;;;;;;5023723;28;20064;-81
2022/12/16 00:08:59;;;;;;;46.80;28.08;;;0.10;99.90;;;;;;5011762;28;20046;-81
2022/12/16 00:11:25;;;;;;;48.47;27.42;;;0.10;99.90;;;;;;4999578;28;20436;-81
2022/12/16 00:13:50;;;;;;;40.58;25.27;;;0.10;99.90;;;;;;5024935;28;20041;-81
2022/12/16 00:16:18;;;;;;;39.67;24.83;;;0.00;99.90;;;;;;5018109;28;20041;-81
2022/12/16 00:18:44;;;;;;;43.58;25.35;;;-0.10;99.90;;;;;;5010551;28;20038;-81
2022/12/16 00:21:10;;;;;;;45.67;28.08;;;-0.10;99.90;;;;;;5018050;28;20067;-81
2022/12/16 00:23:38;;;;;;;42.97;26.65;;;-0.10;99.90;;;;;;4998797;28;20037;-81
2022/12/16 00:26:04;;;;;;;41.97;27.80;;;-0.20;99.90;;;;;;5011793;28;20046;-81
2022/12/16 00:28:30;;;;;;;41.63;26.10;;;-0.20;99.90;;;;;;4996093;28;20563;-81
2022/12/16 00:30:56;;;;;;;49.08;27.75;;;-0.20;99.90;;;;;;5011157;28;20042;-81
2022/12/16 00:33:25;;;;;;;41.45;26.52;;;-0.20;99.90;;;;;;5019734;28;20117;-81
2022/12/16 00:35:51;;;;;;;45.80;27.45;;;-0.30;99.90;;;;;;5019723;28;20050;-81
2022/12/16 00:38:17;;;;;;;43.70;27.05;;;-0.30;99.90;;;;;;5018466;28;20055;-81
2022/12/16 00:40:43;;;;;;;45.17;26.17;;;-0.40;99.90;;;;;;5013752;28;20085;-81
2022/12/16 00:43:10;;;;;;;48.33;27.77;;;-0.40;99.90;;;;;;5018493;28;20065;-81
2022/12/16 00:45:36;;;;;;;42.08;26.33;;;-0.50;99.90;;;;;;5019525;28;20055;-81
2022/12/16 00:48:02;;;;;;;39.45;25.25;;;-0.50;99.90;;;;;;5014182;28;20033;-81
2022/12/16 00:50:28;;;;;;;43.22;25.92;;;-0.60;99.90;;;;;;5012225;28;20129;-81
2022/12/16 00:52:53;;;;;;;41.42;25.88;;;-0.60;99.90;;;;;;5009760;28;20472;-80
2022/12/16 00:55:19;;;;;;;46.28;25.80;;;-0.60;99.90;;;;;;5014802;28;20044;-81
2022/12/16 00:57:45;;;;;;;46.60;26.90;;;-0.60;99.90;;;;;;5027465;28;20050;-81
2022/12/16 01:00:13;;;;;;;45.58;27.95;;;-0.60;99.90;;;;;;5009446;28;20377;-81
2022/12/16 01:02:43;;;;;;;44.75;25.60;;;-0.60;99.90;;;;;;5019902;28;20037;-81
2022/12/16 01:05:10;;;;;;;47.58;27.75;;;-0.60;99.90;;;;;;5016713;28;20084;-81
2022/12/16 01:07:36;;;;;;;48.85;28.10;;;-0.50;99.90;;;;;;5021416;28;20055;-80
2022/12/16 01:10:03;;;;;;;44.65;27.98;;;-0.50;99.90;;;;;;5011394;28;20494;-81
2022/12/16 01:12:29;;;;;;;44.78;27.75;;;-0.50;99.90;;;;;;5006727;28;20052;-81
2022/12/16 01:14:55;;;;;;;44.83;29.05;;;-0.40;99.90;;;;;;5020357;28;20379;-81
2022/12/16 01:17:20;;;;;;;46.92;27.65;;;-0.40;99.90;;;;;;5008790;28;20038;-81
2022/12/16 01:19:46;;;;;;;43.17;26.40;;;-0.40;99.90;;;;;;5011251;28;20867;-80
2022/12/16 01:22:12;;;;;;;43.30;27.40;;;-0.30;99.90;;;;;;5009419;28;20411;-81
2022/12/16 01:24:38;;;;;;;44.53;28.30;;;-0.30;99.90;;;;;;5031861;28;20037;-81
2022/12/16 01:27:04;;;;;;;45.38;27.40;;;-0.30;99.90;;;;;;5009948;28;20041;-81
2022/12/16 01:29:29;;;;;;;44.47;26.77;;;-0.30;99.90;;;;;;5016798;28;20099;-80
2022/12/16 01:31:55;;;;;;;41.88;27.10;;;-0.20;99.90;;;;;;5018801;28;20575;-80
2022/12/16 01:34:21;;;;;;;44.60;27.30;;;-0.20;99.90;;;;;;5023130;28;20128;-80
2022/12/16 01:36:46;;;;;;;39.83;26.85;;;-0.20;99.90;;;;;;5017701;28;20045;-80
2022/12/16 01:39:12;;;;;;;43.13;27.00;;;-0.20;99.90;;;;;;5015698;28;20049;-80
2022/12/16 01:41:38;;;;;;;42.65;26.98;;;0.50;99.90;;;;;;5020344;28;20064;-80
2022/12/16 01:44:33;;;;;;;39.42;24.60;;;-0.20;99.90;;;;;;5029117;28;20053;-80
2022/12/16 01:47:03;;;;;;;34.13;21.92;;;-0.10;99.90;;;;;;5009817;28;20053;-80
2022/12/16 01:49:59;;;;;;;38.80;22.42;;;-0.10;99.90;;;;;;5018321;28;20381;-80
2022/12/16 01:52:35;;;;;;;35.45;21.48;;;0.00;99.90;;;;;;5007139;28;20064;-80
2022/12/16 01:55:14;;;;;;;31.40;20.30;;;0.00;99.90;;;;;;5012275;28;20488;-80
2022/12/16 01:57:55;;;;;;;35.10;22.77;;;0.00;99.90;;;;;;5009444;28;20089;-80
2022/12/16 02:00:20;;;;;;;33.92;21.42;;;0.10;99.90;;;;;;5013998;28;20038;-80
2022/12/16 02:02:47;;;;;;;34.15;21.90;;;0.10;99.90;;;;;;5015476;28;20056;-80
2022/12/16 02:05:20;;;;;;;29.17;14.63;;;0.10;99.90;;;;;;5017898;28;20039;-80
2022/12/16 02:08:03;;;;;;;21.15;10.25;;;0.20;99.90;;;;;;5011860;28;20053;-80
2022/12/16 02:10:34;;;;;;;22.30;12.85;;;0.30;99.90;;;;;;5010245;28;20041;-81
2022/12/16 02:13:12;;;;;;;20.67;9.82;;;0.40;99.90;;;;;;5009331;28;20157;-80
2022/12/16 02:15:38;;;;;;;18.63;9.27;;;0.40;99.90;;;;;;5025886;28;20096;-80
2022/12/16 02:18:06;;;;;;;15.93;8.90;;;0.50;99.90;;;;;;5007891;28;20490;-80
2022/12/16 02:20:43;;;;;;;20.08;9.00;;;0.50;99.90;;;;;;5009312;28;20108;-80
2022/12/16 02:23:15;;;;;;;13.07;7.63;;;0.60;99.90;;;;;;5018828;28;20037;-80
2022/12/16 02:26:05;;;;;;;14.30;7.15;;;0.60;99.90;;;;;;5014438;28;20180;-80
2022/12/16 02:28:55;;;;;;;19.20;7.13;;;0.60;99.90;;;;;;5012668;28;20073;-80
2022/12/16 02:31:40;;;;;;;14.68;5.93;;;0.70;99.90;;;;;;5019576;28;20045;-80
2022/12/16 02:34:17;;;;;;;12.50;7.22;;;0.70;99.90;;;;;;5018595;28;20126;-80
2022/12/16 02:37:07;;;;;;;14.82;7.25;;;0.80;99.90;;;;;;5009975;28;20048;-80
2022/12/16 02:39:38;;;;;;;13.85;6.28;;;0.80;99.90;;;;;;5018020;28;20080;-80
2022/12/16 02:42:07;;;;;;;12.65;6.93;;;0.80;99.90;;;;;;5001814;28;20050;-80
2022/12/16 02:44:59;;;;;;;12.18;6.28;;;0.90;99.90;;;;;;5009516;28;20042;-80
2022/12/16 02:47:25;;;;;;;12.02;6.53;;;0.90;99.90;;;;;;5020096;28;20083;-81
2022/12/16 02:49:53;;;;;;;12.90;5.70;;;0.90;99.90;;;;;;5011305;28;20050;-80
2022/12/16 02:52:23;;;;;;;10.80;5.72;;;1.00;99.90;;;;;;5010575;28;20045;-81
2022/12/16 02:54:53;;;;;;;11.77;5.55;;;1.00;99.90;;;;;;5015865;28;20076;-80
2022/12/16 02:57:49;;;;;;;10.25;5.60;;;1.00;99.90;;;;;;5009815;28;20042;-80
2022/12/16 03:00:19;;;;;;;9.40;5.20;;;1.00;99.90;;;;;;5024642;28;20045;-80
2022/12/16 03:02:57;;;;;;;11.32;5.50;;;1.10;99.90;;;;;;5027325;28;20463;-80
2022/12/16 03:05:23;;;;;;;10.20;5.15;;;1.20;99.90;;;;;;5010457;28;20049;-80
2022/12/16 03:07:51;;;;;;;9.50;5.43;;;1.10;99.90;;;;;;5040285;28;20046;-80
2022/12/16 03:10:20;;;;;;;10.65;5.15;;;1.10;99.90;;;;;;5030260;28;20198;-80
2022/12/16 03:12:46;;;;;;;11.52;5.50;;;1.20;99.90;;;;;;5010372;28;20041;-80
2022/12/16 03:15:18;;;;;;;9.70;5.22;;;1.20;99.90;;;;;;4997130;28;20038;-80
2022/12/16 03:17:46;;;;;;;10.85;4.93;;;1.20;99.90;;;;;;5011559;28;20416;-80
2022/12/16 03:20:25;;;;;;;10.80;5.10;;;1.30;99.90;;;;;;5013181;28;20484;-80
2022/12/16 03:22:53;;;;;;;15.77;4.97;;;1.30;99.90;;;;;;4998605;28;20595;-81
2022/12/16 03:25:21;;;;;;;8.82;4.07;;;1.30;99.90;;;;;;5008790;28;20076;-80
2022/12/16 03:28:00;;;;;;;11.70;4.85;;;1.40;99.90;;;;;;5008029;28;20121;-80
2022/12/16 03:30:32;;;;;;;9.43;5.68;;;1.40;99.90;;;;;;5011967;28;20045;-80
2022/12/16 03:33:06;;;;;;;9.15;6.03;;;1.40;99.90;;;;;;5007305;28;20049;-80
2022/12/16 03:35:38;;;;;;;10.18;5.97;;;1.50;99.90;;;;;;5021674;28;20041;-80
2022/12/16 03:38:08;;;;;;;12.32;6.53;;;1.50;99.90;;;;;;5028308;28;20042;-80
2022/12/16 03:40:35;;;;;;;10.98;6.57;;;0.70;99.90;;;;;;5011169;28;20054;-80
2022/12/16 03:43:02;;;;;;;12.43;8.13;;;1.50;99.90;;;;;;4999861;28;20055;-80
2022/12/16 03:45:35;;;;;;;13.32;7.60;;;1.60;99.90;;;;;;5006602;28;20045;-80
2022/12/16 03:48:01;;;;;;;11.90;7.60;;;1.60;99.90;;;;;;5004244;28;20669;-80
2022/12/16 03:50:32;;;;;;;13.38;8.23;;;1.90;99.90;;;;;;5007223;28;20077;-80
2022/12/16 03:52:58;;;;;;;16.55;7.82;;;1.60;99.90;;;;;;5010002;28;20048;-80
2022/12/16 03:55:24;;;;;;;17.23;8.90;;;1.60;99.90;;;;;;5021870;28;20033;-81
2022/12/16 03:57:49;;;;;;;14.48;8.63;;;1.60;99.90;;;;;;5016425;28;20110;-80
2022/12/16 04:00:16;;;;;;;19.95;10.13;;;2.30;99.90;;;;;;5013701;28;20048;-80
2022/12/16 04:02:41;;;;;;;20.13;12.15;;;1.50;99.90;;;;;;5010295;28;20045;-80
2022/12/16 04:05:08;;;;;;;18.42;11.88;;;2.20;99.90;;;;;;5010215;28;20056;-80
2022/12/16 04:07:33;;;;;;;20.50;12.48;;;1.50;99.90;;;;;;5013552;28;20042;-80
2022/12/16 04:09:59;;;;;;;21.40;11.77;;;1.50;99.90;;;;;;5011304;28;20037;-80
2022/12/16 04:26:14;;;;;;;39.25;21.98;;;2.30;99.90;;;;;;5010364;28;20049;-81
2022/12/16 04:28:43;;;;;;;41.40;23.60;;;1.70;99.90;;;;;;5011010;28;20100;-80
2022/12/16 04:31:09;;;;;;;44.55;26.15;;;1.70;99.90;;;;;;5011013;28;20034;-80
